Time;durP1;ratioP1;P1;durP2;ratioP2;P2;SDS_P1;SDS_P2;PMS_P1;PMS_P2;Temp;Humidity;BMP_temperature;BMP_pressure;BME280_temperature;BME280_humidity;BME280_pressure;Samples;Min_cycle;Max_cycle;Signal;HPM_P1;HPM_P2
2022/10/08 00:00:50;;;;;;;5.07;4.57;;;;;;;;;;4952629;28;20470;-68
2022/10/08 00:03:17;;;;;;;4.60;4.30;;;;;;;;;;4952255;28;20431;-68
2022/10/08 00:05:43;;;;;;;5.90;3.40;;;;;;;;;;4953160;28;20426;-68
2022/10/08 00:08:09;;;;;;;4.77;4.37;;;;;;;;;;4952453;28;20521;-68
2022/10/08 00:10:36;;;;;;;6.23;4.43;;;;;;;;;;4952834;28;20474;-69
2022/10/08 00:13:03;;;;;;;22.40;4.20;;;;;;;;;;4950870;28;20422;-68
2022/10/08 00:15:29;;;;;;;4.10;3.80;;;;;;;;;;4952961;28;20422;-68
2022/10/08 00:17:55;;;;;;;9.33;4.17;;;;;;;;;;4952836;28;20438;-68
2022/10/08 00:20:21;;;;;;;9.03;4.33;;;;;;;;;;4952444;28;20954;-69
2022/10/08 00:22:48;;;;;;;6.80;4.30;;;;;;;;;;4953004;28;20429;-67
2022/10/08 00:25:14;;;;;;;4.50;4.13;;;;;;;;;;4952584;28;20431;-68
2022/10/08 00:27:41;;;;;;;4.70;4.30;;;;;;;;;;4951116;28;20423;-67
2022/10/08 00:30:07;;;;;;;4.97;4.50;;;;;;;;;;4952325;28;21003;-68
2022/10/08 00:32:33;;;;;;;12.57;4.77;;;;;;;;;;4952594;28;20489;-68
2022/10/08 00:34:59;;;;;;;8.93;4.20;;;;;;;;;;4952187;28;20438;-68
2022/10/08 00:37:25;;;;;;;4.60;4.27;;;;;;;;;;4951836;28;20478;-68
2022/10/08 00:39:51;;;;;;;8.20;4.70;;;;;;;;;;4951240;28;20959;-68
2022/10/08 00:42:17;;;;;;;9.20;4.33;;;;;;;;;;4951700;28;20431;-69
2022/10/08 00:44:51;;;;;;;4.33;4.20;;;;;;;;;;4951971;28;20502;-67
2022/10/08 00:47:19;;;;;;;4.33;3.87;;;;;;;;;;4951275;28;21009;-68
2022/10/08 00:49:50;;;;;;;11.37;4.33;;;;;;;;;;4952130;28;21022;-68
2022/10/08 00:52:17;;;;;;;7.43;4.30;;;;;;;;;;4950656;28;20446;-67
2022/10/08 00:54:43;;;;;;;6.60;4.83;;;;;;;;;;4951436;28;20578;-68
2022/10/08 00:57:09;;;;;;;3.80;3.67;;;;;;;;;;4951608;28;21019;-68
2022/10/08 00:59:36;;;;;;;10.50;4.20;;;;;;;;;;4952085;28;20514;-68
2022/10/08 01:02:02;;;;;;;4.73;4.33;;;;;;;;;;4951848;28;20434;-68
2022/10/08 01:04:28;;;;;;;5.70;4.90;;;;;;;;;;4951404;28;20557;-68
2022/10/08 01:07:01;;;;;;;10.43;4.00;;;;;;;;;;4950664;28;20525;-68
2022/10/08 01:09:37;;;;;;;4.27;3.93;;;;;;;;;;4951796;28;20475;-69
2022/10/08 01:12:06;;;;;;;5.60;3.77;;;;;;;;;;4952073;28;20415;-68
2022/10/08 01:14:55;;;;;;;6.73;3.80;;;;;;;;;;4951957;28;20462;-67
2022/10/08 01:17:33;;;;;;;5.20;3.40;;;;;;;;;;4952212;28;20506;-68
2022/10/08 01:20:03;;;;;;;4.33;4.13;;;;;;;;;;4950991;28;20450;-68
2022/10/08 01:22:34;;;;;;;8.20;5.00;;;;;;;;;;4951451;28;20438;-68
2022/10/08 01:27:59;;;;;;;6.10;4.00;;;;;;;;;;4950175;28;20422;-69
2022/10/08 01:30:26;;;;;;;4.80;4.40;;;;;;;;;;4951509;28;20489;-68
2022/10/08 01:33:13;;;;;;;6.87;4.50;;;;;;;;;;4950366;28;20872;-68
2022/10/08 01:35:43;;;;;;;4.17;3.80;;;;;;;;;;4950260;28;20435;-67
2022/10/08 01:38:12;;;;;;;5.60;4.37;;;;;;;;;;4950978;28;20526;-68
2022/10/08 01:40:39;;;;;;;3.93;3.63;;;;;;;;;;4950299;28;20442;-68
2022/10/08 01:43:06;;;;;;;6.80;4.50;;;;;;;;;;4950310;28;20431;-68
2022/10/08 01:45:37;;;;;;;11.53;4.70;;;;;;;;;;4950398;28;20438;-68
2022/10/08 01:48:06;;;;;;;5.03;4.27;;;;;;;;;;4951389;28;20450;-67
2022/10/08 01:50:32;;;;;;;4.17;3.83;;;;;;;;;;4951223;28;20486;-68
2022/10/08 01:53:03;;;;;;;7.10;4.43;;;;;;;;;;4951041;28;20444;-68
2022/10/08 01:55:35;;;;;;;8.00;4.70;;;;;;;;;;4951010;28;20443;-68
2022/10/08 01:58:15;;;;;;;7.80;3.77;;;;;;;;;;4951181;28;20446;-68
2022/10/08 02:00:41;;;;;;;8.93;4.20;;;;;;;;;;4949243;28;20445;-68
2022/10/08 02:03:10;;;;;;;8.07;3.70;;;;;;;;;;4950979;28;20844;-68
2022/10/08 02:05:37;;;;;;;4.43;4.10;;;;;;;;;;4951174;28;20854;-68
2022/10/08 02:08:03;;;;;;;5.00;4.20;;;;;;;;;;4950969;28;20430;-68
2022/10/08 02:10:30;;;;;;;7.00;4.20;;;;;;;;;;4950298;28;20486;-68
2022/10/08 02:12:56;;;;;;;4.07;3.47;;;;;;;;;;4950858;28;20466;-68
2022/10/08 02:15:34;;;;;;;5.53;3.60;;;;;;;;;;4951134;28;20439;-69
2022/10/08 02:18:06;;;;;;;6.77;4.67;;;;;;;;;;4954888;28;20450;-67
2022/10/08 02:20:32;;;;;;;3.80;3.60;;;;;;;;;;4954284;28;20869;-68
2022/10/08 02:23:01;;;;;;;10.30;3.93;;;;;;;;;;4954452;28;20944;-68
2022/10/08 02:25:36;;;;;;;6.20;4.03;;;;;;;;;;4954093;28;20441;-68
2022/10/08 02:28:02;;;;;;;5.90;4.90;;;;;;;;;;4954809;28;20433;-68
2022/10/08 02:30:31;;;;;;;5.23;4.73;;;;;;;;;;4954203;28;20617;-68
2022/10/08 02:32:59;;;;;;;7.23;4.80;;;;;;;;;;4953565;28;20496;-67
2022/10/08 02:35:33;;;;;;;5.77;4.00;;;;;;;;;;4953984;28;20438;-68
2022/10/08 02:38:01;;;;;;;5.03;3.93;;;;;;;;;;4954582;28;20492;-67
2022/10/08 02:40:29;;;;;;;13.43;4.40;;;;;;;;;;4953866;28;20435;-68
2022/10/08 02:42:59;;;;;;;7.53;4.27;;;;;;;;;;4954244;28;20798;-67
2022/10/08 02:45:28;;;;;;;4.60;4.30;;;;;;;;;;4954068;28;20439;-68
2022/10/08 02:47:57;;;;;;;6.27;4.37;;;;;;;;;;4954440;28;20430;-68
2022/10/08 02:50:25;;;;;;;9.70;4.70;;;;;;;;;;4952485;28;20715;-68
2022/10/08 02:52:52;;;;;;;9.33;4.03;;;;;;;;;;4954334;28;20445;-67
2022/10/08 02:55:41;;;;;;;5.50;5.00;;;;;;;;;;4953581;28;20914;-68
2022/10/08 02:58:09;;;;;;;4.97;4.47;;;;;;;;;;4954441;28;20427;-68
2022/10/08 03:00:43;;;;;;;4.60;4.20;;;;;;;;;;4953713;28;20426;-67
2022/10/08 03:03:14;;;;;;;5.13;4.70;;;;;;;;;;4952953;28;20517;-68
2022/10/08 03:05:41;;;;;;;4.47;4.17;;;;;;;;;;4953447;28;21066;-67
2022/10/08 03:08:09;;;;;;;5.17;4.00;;;;;;;;;;4954357;28;20443;-67
2022/10/08 03:10:37;;;;;;;4.53;4.17;;;;;;;;;;4952081;28;20493;-68
2022/10/08 03:13:04;;;;;;;5.27;4.80;;;;;;;;;;4953535;28;20442;-68
2022/10/08 03:15:31;;;;;;;4.60;4.30;;;;;;;;;;4953397;28;20548;-67
2022/10/08 03:17:58;;;;;;;8.13;4.47;;;;;;;;;;4953969;28;20427;-68
2022/10/08 03:20:25;;;;;;;7.53;4.30;;;;;;;;;;4953609;28;20466;-68
2022/10/08 03:22:53;;;;;;;5.20;4.77;;;;;;;;;;4953971;28;20518;-67
2022/10/08 03:25:19;;;;;;;7.43;3.90;;;;;;;;;;4952581;28;20450;-69
2022/10/08 03:27:45;;;;;;;7.27;6.30;;;;;;;;;;4951698;28;20836;-68
2022/10/08 03:30:11;;;;;;;7.03;4.83;;;;;;;;;;4953361;28;20525;-67
2022/10/08 03:32:37;;;;;;;5.47;4.90;;;;;;;;;;4953558;28;20443;-67
2022/10/08 03:35:03;;;;;;;6.47;4.23;;;;;;;;;;4953260;28;20450;-67
2022/10/08 03:37:29;;;;;;;5.03;4.63;;;;;;;;;;4953088;28;20553;-67
2022/10/08 03:39:55;;;;;;;6.03;4.10;;;;;;;;;;4953064;28;20533;-67
2022/10/08 03:42:21;;;;;;;5.70;4.30;;;;;;;;;;4953348;28;20427;-68
2022/10/08 03:44:47;;;;;;;4.20;4.00;;;;;;;;;;4952562;28;20970;-67
2022/10/08 03:47:13;;;;;;;4.23;3.83;;;;;;;;;;4953615;28;20438;-68
2022/10/08 03:49:40;;;;;;;4.57;4.27;;;;;;;;;;4952694;28;20472;-67
2022/10/08 03:52:06;;;;;;;6.93;4.83;;;;;;;;;;4953488;28;20431;-67
2022/10/08 03:54:34;;;;;;;6.17;4.23;;;;;;;;;;4952577;28;20509;-67
2022/10/08 03:57:00;;;;;;;4.93;3.90;;;;;;;;;;4952856;28;20887;-67
2022/10/08 03:59:26;;;;;;;4.30;3.97;;;;;;;;;;4952767;28;20522;-68
2022/10/08 04:01:52;;;;;;;4.53;4.23;;;;;;;;;;4952410;28;20829;-68
2022/10/08 04:04:18;;;;;;;5.30;4.87;;;;;;;;;;4952863;28;20437;-68
2022/10/08 04:06:44;;;;;;;4.93;4.33;;;;;;;;;;4951739;28;20439;-67
2022/10/08 04:09:10;;;;;;;4.33;4.00;;;;;;;;;;4952614;28;20473;-67
2022/10/08 04:11:36;;;;;;;4.73;3.93;;;;;;;;;;4952132;28;20517;-68
2022/10/08 04:14:02;;;;;;;5.07;4.70;;;;;;;;;;4952043;28;20469;-68
2022/10/08 04:16:28;;;;;;;4.07;3.73;;;;;;;;;;4946581;28;20478;-68
2022/10/08 04:18:54;;;;;;;17.13;4.87;;;;;;;;;;4951750;28;20868;-67
2022/10/08 04:21:20;;;;;;;4.13;3.93;;;;;;;;;;4951930;28;20467;-66
2022/10/08 04:23:48;;;;;;;5.33;4.73;;;;;;;;;;4951295;28;20431;-67
2022/10/08 04:26:15;;;;;;;7.23;3.97;;;;;;;;;;4951353;28;20443;-67
2022/10/08 04:28:43;;;;;;;5.27;4.70;;;;;;;;;;4951756;28;20427;-67
2022/10/08 04:31:15;;;;;;;8.87;4.70;;;;;;;;;;4951740;28;20490;-67
2022/10/08 04:33:41;;;;;;;5.27;4.80;;;;;;;;;;4951287;28;20438;-67
2022/10/08 04:36:14;;;;;;;4.03;3.73;;;;;;;;;;4951031;28;20869;-67
2022/10/08 04:38:44;;;;;;;4.90;4.50;;;;;;;;;;4950279;28;20463;-67
2022/10/08 04:41:12;;;;;;;4.70;4.17;;;;;;;;;;4952002;28;20525;-67
2022/10/08 04:43:38;;;;;;;5.60;5.10;;;;;;;;;;4951775;28;20434;-67
2022/10/08 04:46:05;;;;;;;4.70;4.40;;;;;;;;;;4950937;28;20446;-67
2022/10/08 04:48:31;;;;;;;7.90;5.20;;;;;;;;;;4951873;28;20836;-67
2022/10/08 04:50:57;;;;;;;5.83;5.17;;;;;;;;;;4951532;28;20626;-67
2022/10/08 04:53:27;;;;;;;6.80;5.57;;;;;;;;;;4952068;28;20946;-68
2022/10/08 04:55:53;;;;;;;13.77;4.43;;;;;;;;;;4950826;28;20438;-67
2022/10/08 04:58:20;;;;;;;6.30;3.73;;;;;;;;;;4952040;28;20431;-68
2022/10/08 05:00:46;;;;;;;11.10;4.37;;;;;;;;;;4951642;28;20943;-68
2022/10/08 05:03:12;;;;;;;4.67;4.33;;;;;;;;;;4951553;28;20438;-68
2022/10/08 05:05:40;;;;;;;10.70;5.00;;;;;;;;;;4951266;28;20439;-68
2022/10/08 05:08:06;;;;;;;11.50;3.53;;;;;;;;;;4951858;28;20442;-68
2022/10/08 05:10:32;;;;;;;4.27;3.87;;;;;;;;;;4950816;28;21133;-67
2022/10/08 05:12:59;;;;;;;7.20;3.80;;;;;;;;;;4951930;28;20521;-68
2022/10/08 05:15:25;;;;;;;6.00;5.03;;;;;;;;;;4951675;28;20951;-68
2022/10/08 05:17:51;;;;;;;4.43;4.10;;;;;;;;;;4951547;28;20438;-69
2022/10/08 05:20:17;;;;;;;6.63;3.40;;;;;;;;;;4950425;28;20935;-68
2022/10/08 05:22:43;;;;;;;4.00;3.80;;;;;;;;;;4951459;28;20438;-69
2022/10/08 05:25:09;;;;;;;17.97;4.73;;;;;;;;;;4951110;28;20435;-68
2022/10/08 05:27:35;;;;;;;6.23;3.70;;;;;;;;;;4951687;28;20439;-69
2022/10/08 05:30:02;;;;;;;6.70;5.30;;;;;;;;;;4950454;28;20899;-68
2022/10/08 05:32:28;;;;;;;8.70;5.27;;;;;;;;;;4950058;28;20847;-68
2022/10/08 05:34:54;;;;;;;14.47;5.43;;;;;;;;;;4951331;28;20815;-68
2022/10/08 05:37:20;;;;;;;5.13;4.57;;;;;;;;;;4951273;28;20478;-68
2022/10/08 05:39:47;;;;;;;7.80;4.40;;;;;;;;;;4949796;28;20506;-68
2022/10/08 05:42:13;;;;;;;12.10;5.77;;;;;;;;;;4949165;28;20441;-68
2022/10/08 05:44:39;;;;;;;8.73;5.50;;;;;;;;;;4950281;28;20446;-68
2022/10/08 05:47:05;;;;;;;6.87;5.80;;;;;;;;;;4950396;28;20497;-75
2022/10/08 05:49:31;;;;;;;6.00;5.50;;;;;;;;;;4949702;28;20466;-80
2022/10/08 05:51:57;;;;;;;5.87;5.10;;;;;;;;;;4953950;28;20526;-68
2022/10/08 05:54:23;;;;;;;8.30;5.30;;;;;;;;;;4950450;28;20450;-70
2022/10/08 05:56:49;;;;;;;6.53;5.80;;;;;;;;;;4953965;28;20438;-65
2022/10/08 05:59:17;;;;;;;15.43;5.47;;;;;;;;;;4953623;28;21201;-68
2022/10/08 06:01:43;;;;;;;5.43;5.00;;;;;;;;;;4954901;28;20470;-69
2022/10/08 06:04:09;;;;;;;15.33;8.47;;;;;;;;;;4954043;28;20454;-68
2022/10/08 06:06:36;;;;;;;9.90;8.87;;;;;;;;;;4953183;28;20454;-68
2022/10/08 06:09:02;;;;;;;6.03;5.30;;;;;;;;;;4954065;28;20446;-68
2022/10/08 06:11:29;;;;;;;8.83;6.97;;;;;;;;;;4953062;28;20439;-68
2022/10/08 06:13:56;;;;;;;8.33;7.50;;;;;;;;;;4945557;28;20448;-69
2022/10/08 06:16:22;;;;;;;7.90;6.90;;;;;;;;;;4950659;28;20438;-69
2022/10/08 06:18:49;;;;;;;8.90;8.00;;;;;;;;;;4952878;28;20536;-67
2022/10/08 06:21:18;;;;;;;14.67;7.70;;;;;;;;;;4952937;28;20856;-68
2022/10/08 06:23:48;;;;;;;9.20;7.87;;;;;;;;;;4950772;28;20443;-71
2022/10/08 06:26:16;;;;;;;14.57;10.20;;;;;;;;;;4952226;28;20431;-68
2022/10/08 06:28:42;;;;;;;14.90;9.37;;;;;;;;;;4952556;28;20439;-68
2022/10/08 06:31:08;;;;;;;17.93;10.87;;;;;;;;;;4952228;28;21856;-67
2022/10/08 06:33:35;;;;;;;16.07;10.07;;;;;;;;;;4953503;28;20462;-68
2022/10/08 06:36:04;;;;;;;23.17;11.87;;;;;;;;;;4954346;28;20458;-68
2022/10/08 06:38:30;;;;;;;14.67;9.00;;;;;;;;;;4953508;28;20481;-68
2022/10/08 06:40:57;;;;;;;12.60;8.10;;;;;;;;;;4952146;28;20435;-68
2022/10/08 06:43:23;;;;;;;10.33;8.33;;;;;;;;;;4952208;28;20442;-68
2022/10/08 06:45:49;;;;;;;10.40;7.80;;;;;;;;;;4951037;28;20454;-68
2022/10/08 06:48:15;;;;;;;13.83;7.50;;;;;;;;;;4953357;28;20434;-68
2022/10/08 06:50:41;;;;;;;8.87;7.90;;;;;;;;;;4952289;28;20490;-68
2022/10/08 06:53:08;;;;;;;6.43;5.30;;;;;;;;;;4952996;28;20438;-68
2022/10/08 06:55:35;;;;;;;6.50;5.60;;;;;;;;;;4952857;28;20461;-68
2022/10/08 06:58:01;;;;;;;7.80;6.27;;;;;;;;;;4954333;28;20464;-68
2022/10/08 07:00:27;;;;;;;7.37;6.80;;;;;;;;;;4954253;28;20783;-68
2022/10/08 07:02:53;;;;;;;10.30;7.50;;;;;;;;;;4951062;28;20815;-68
2022/10/08 07:05:19;;;;;;;9.60;8.47;;;;;;;;;;4951935;28;20430;-68
2022/10/08 07:07:45;;;;;;;8.93;6.63;;;;;;;;;;4952451;28;20469;-68
2022/10/08 07:10:11;;;;;;;12.87;9.10;;;;;;;;;;4952631;28;20494;-69
2022/10/08 07:12:37;;;;;;;18.97;7.80;;;;;;;;;;4953708;28;20450;-69
2022/10/08 07:15:04;;;;;;;11.97;8.20;;;;;;;;;;4953429;28;20517;-68
2022/10/08 07:17:29;;;;;;;14.20;8.43;;;;;;;;;;4954090;28;20423;-68
2022/10/08 07:19:56;;;;;;;10.13;8.00;;;;;;;;;;4952831;28;20446;-68
2022/10/08 07:22:22;;;;;;;10.93;8.03;;;;;;;;;;4952688;28;20924;-67
2022/10/08 07:24:48;;;;;;;11.13;7.53;;;;;;;;;;4953269;28;20953;-67
2022/10/08 07:27:14;;;;;;;12.37;7.80;;;;;;;;;;4953476;28;20441;-68
2022/10/08 07:29:40;;;;;;;9.33;7.37;;;;;;;;;;4953262;28;20525;-68
2022/10/08 07:32:06;;;;;;;20.03;8.20;;;;;;;;;;4953095;28;20470;-68
2022/10/08 07:34:32;;;;;;;8.00;7.23;;;;;;;;;;4953542;28;20513;-68
2022/10/08 07:36:58;;;;;;;12.63;7.80;;;;;;;;;;4953422;28;20469;-69
2022/10/08 07:39:26;;;;;;;12.87;8.10;;;;;;;;;;4953182;28;20442;-68
2022/10/08 07:41:52;;;;;;;9.83;8.90;;;;;;;;;;4952076;28;20438;-68
2022/10/08 07:44:18;;;;;;;8.53;7.60;;;;;;;;;;4952542;28;20435;-69
2022/10/08 07:46:45;;;;;;;20.13;12.83;;;;;;;;;;4953320;28;20437;-68
2022/10/08 07:49:11;;;;;;;71.53;46.40;;;;;;;;;;4952514;28;20546;-68
2022/10/08 07:51:37;;;;;;;38.57;27.17;;;;;;;;;;4950494;28;20443;-68
2022/10/08 07:54:05;;;;;;;23.43;11.00;;;;;;;;;;4952371;28;20947;-68
2022/10/08 07:56:31;;;;;;;14.60;8.13;;;;;;;;;;4967646;28;20439;-68
2022/10/08 07:58:58;;;;;;;18.63;7.17;;;;;;;;;;4952554;28;20466;-69
2022/10/08 08:01:28;;;;;;;9.80;6.60;;;;;;;;;;4952610;28;20512;-68
2022/10/08 08:03:55;;;;;;;11.33;5.50;;;;;;;;;;4951723;28;20450;-68
2022/10/08 08:06:22;;;;;;;11.33;5.50;;;;;;;;;;4952722;28;20497;-68
2022/10/08 08:08:48;;;;;;;11.17;5.23;;;;;;;;;;4951923;28;20553;-68
2022/10/08 08:11:16;;;;;;;7.53;4.53;;;;;;;;;;4952726;28;21069;-69
2022/10/08 08:13:42;;;;;;;7.30;4.60;;;;;;;;;;4950897;28;20866;-68
2022/10/08 08:16:10;;;;;;;7.33;4.30;;;;;;;;;;4952085;28;20446;-68
2022/10/08 08:18:37;;;;;;;6.10;4.80;;;;;;;;;;4951779;28;20510;-68
2022/10/08 08:21:07;;;;;;;5.63;5.10;;;;;;;;;;4953095;28;20454;-82
2022/10/08 08:23:34;;;;;;;5.43;4.33;;;;;;;;;;4952144;28;20439;-68
2022/10/08 08:26:01;;;;;;;8.10;4.40;;;;;;;;;;4951896;28;20443;-68
2022/10/08 08:28:27;;;;;;;4.13;3.00;;;;;;;;;;4952335;28;20825;-69
2022/10/08 08:30:53;;;;;;;3.60;3.40;;;;;;;;;;4952111;28;20502;-68
2022/10/08 08:33:19;;;;;;;4.30;3.13;;;;;;;;;;4951752;28;20497;-68
2022/10/08 08:35:52;;;;;;;9.80;3.10;;;;;;;;;;4952114;28;20539;-69
2022/10/08 08:38:18;;;;;;;3.27;2.90;;;;;;;;;;4952253;28;20613;-69
2022/10/08 08:40:44;;;;;;;5.33;2.90;;;;;;;;;;4951543;28;20807;-69
2022/10/08 08:43:10;;;;;;;9.33;2.50;;;;;;;;;;4951100;28;20884;-68
2022/10/08 08:45:37;;;;;;;5.33;2.30;;;;;;;;;;4952134;28;20442;-70
2022/10/08 08:48:12;;;;;;;3.60;2.50;;;;;;;;;;4951420;28;20950;-69
2022/10/08 08:50:41;;;;;;;2.37;2.27;;;;;;;;;;4951813;28;21072;-70
2022/10/08 08:53:08;;;;;;;15.53;2.63;;;;;;;;;;4950670;28;20435;-70
2022/10/08 08:55:42;;;;;;;5.03;2.87;;;;;;;;;;4951494;28;20446;-71
2022/10/08 08:58:24;;;;;;;8.30;3.33;;;;;;;;;;4951522;28;20974;-70
2022/10/08 09:00:53;;;;;;;3.30;1.73;;;;;;;;;;4950443;28;20431;-69
2022/10/08 09:03:24;;;;;;;4.60;2.33;;;;;;;;;;4950281;28;20445;-64
2022/10/08 09:05:56;;;;;;;7.53;2.20;;;;;;;;;;4951789;28;20438;-70
2022/10/08 09:08:25;;;;;;;4.10;1.47;;;;;;;;;;4950641;28;20435;-69
2022/10/08 09:10:56;;;;;;;4.10;2.17;;;;;;;;;;4951785;28;20704;-70
2022/10/08 09:13:24;;;;;;;3.60;1.60;;;;;;;;;;4951113;28;20604;-70
2022/10/08 09:15:51;;;;;;;3.77;1.97;;;;;;;;;;4951578;28;20970;-70
2022/10/08 09:18:17;;;;;;;1.60;1.50;;;;;;;;;;4951314;28;20449;-69
2022/10/08 09:20:43;;;;;;;3.73;2.00;;;;;;;;;;4951623;28;20446;-70
2022/10/08 09:23:13;;;;;;;1.43;1.40;;;;;;;;;;4950698;28;20439;-69
2022/10/08 09:25:40;;;;;;;2.10;1.80;;;;;;;;;;4951029;28;20434;-69
2022/10/08 09:28:07;;;;;;;2.27;2.13;;;;;;;;;;4950654;28;20447;-71
2022/10/08 09:30:37;;;;;;;2.60;1.60;;;;;;;;;;4951019;28;21003;-71
2022/10/08 09:33:05;;;;;;;2.83;1.50;;;;;;;;;;4949628;28;20445;-69
2022/10/08 09:35:32;;;;;;;6.67;2.10;;;;;;;;;;4951013;28;20578;-69
2022/10/08 09:37:58;;;;;;;5.40;2.10;;;;;;;;;;4950941;28;20490;-71
2022/10/08 09:40:26;;;;;;;2.03;1.93;;;;;;;;;;4950046;28;20527;-70
2022/10/08 09:43:09;;;;;;;1.93;1.70;;;;;;;;;;4951234;28;20906;-69
2022/10/08 09:45:43;;;;;;;9.60;1.83;;;;;;;;;;4950640;28;20442;-70
2022/10/08 09:48:12;;;;;;;6.67;3.13;;;;;;;;;;4950836;28;20430;-70
2022/10/08 09:50:38;;;;;;;4.63;2.37;;;;;;;;;;4951295;28;20551;-68
2022/10/08 09:53:05;;;;;;;1.67;1.37;;;;;;;;;;4950717;28;20961;-69
2022/10/08 09:55:35;;;;;;;5.63;1.80;;;;;;;;;;4951302;28;20446;-69
2022/10/08 09:58:02;;;;;;;2.90;1.33;;;;;;;;;;4951280;28;20868;-70
2022/10/08 10:00:34;;;;;;;2.87;2.67;;;;;;;;;;4949925;28;20481;-70
2022/10/08 10:03:01;;;;;;;3.90;2.13;;;;;;;;;;4951338;28;20419;-69
2022/10/08 10:05:28;;;;;;;5.80;2.50;;;;;;;;;;4950998;28;20435;-71
2022/10/08 10:07:54;;;;;;;2.20;1.60;;;;;;;;;;4951207;28;20475;-69
2022/10/08 10:10:43;;;;;;;4.10;1.70;;;;;;;;;;4951242;28;20574;-69
2022/10/08 10:13:21;;;;;;;2.10;1.90;;;;;;;;;;4950240;28;20529;-69
2022/10/08 10:15:58;;;;;;;5.83;2.13;;;;;;;;;;4949981;28;20434;-70
2022/10/08 10:18:30;;;;;;;3.23;1.70;;;;;;;;;;4951036;28;20426;-70
2022/10/08 10:20:59;;;;;;;7.60;1.67;;;;;;;;;;4948294;28;20427;-71
2022/10/08 10:23:27;;;;;;;2.93;1.33;;;;;;;;;;4949714;28;20431;-70
2022/10/08 10:25:57;;;;;;;2.20;1.30;;;;;;;;;;4950754;28;20439;-72
2022/10/08 10:28:33;;;;;;;5.40;2.20;;;;;;;;;;4951291;28;20442;-69
2022/10/08 10:30:59;;;;;;;2.70;1.77;;;;;;;;;;4950578;28;20474;-68
2022/10/08 10:33:26;;;;;;;5.87;3.10;;;;;;;;;;4950842;28;20415;-70
2022/10/08 10:35:55;;;;;;;9.03;2.70;;;;;;;;;;4948660;28;20438;-69
2022/10/08 10:38:26;;;;;;;3.63;1.60;;;;;;;;;;4953312;28;20532;-69
2022/10/08 10:41:05;;;;;;;2.97;1.80;;;;;;;;;;4952989;28;20439;-69
2022/10/08 10:43:37;;;;;;;3.90;1.70;;;;;;;;;;4951398;28;20501;-70
2022/10/08 10:46:06;;;;;;;1.40;1.40;;;;;;;;;;4968178;28;20451;-69
2022/10/08 10:48:32;;;;;;;3.67;1.90;;;;;;;;;;4954815;28;20426;-70
2022/10/08 10:51:02;;;;;;;9.73;2.00;;;;;;;;;;4955622;28;20557;-70
2022/10/08 10:53:37;;;;;;;4.60;2.67;;;;;;;;;;4958118;28;20478;-69
2022/10/08 10:56:17;;;;;;;1.77;1.77;;;;;;;;;;4953142;28;20821;-71
2022/10/08 10:58:52;;;;;;;3.63;2.10;;;;;;;;;;4954045;28;20437;-69
2022/10/08 11:01:38;;;;;;;3.43;2.00;;;;;;;;;;4954133;28;20533;-70
2022/10/08 11:04:08;;;;;;;4.70;1.80;;;;;;;;;;4951974;28;20454;-66
2022/10/08 11:06:34;;;;;;;6.30;2.77;;;;;;;;;;4953439;28;20440;-70
2022/10/08 11:09:06;;;;;;;2.60;1.70;;;;;;;;;;4952351;28;20443;-70
2022/10/08 11:11:39;;;;;;;2.33;2.10;;;;;;;;;;4954080;28;20438;-69
2022/10/08 11:14:23;;;;;;;3.20;2.33;;;;;;;;;;4953503;28;20438;-70
2022/10/08 11:16:58;;;;;;;4.67;2.60;;;;;;;;;;4952357;28;20479;-69
2022/10/08 11:19:44;;;;;;;5.67;2.33;;;;;;;;;;4950826;28;20438;-69
2022/10/08 11:22:23;;;;;;;4.10;1.60;;;;;;;;;;4952363;28;20458;-69
2022/10/08 11:25:02;;;;;;;3.53;2.33;;;;;;;;;;4952366;28;20466;-69
2022/10/08 11:27:35;;;;;;;3.63;2.50;;;;;;;;;;4953707;28;20434;-69
2022/10/08 11:30:13;;;;;;;1.67;1.60;;;;;;;;;;4951658;28;20494;-69
2022/10/08 11:32:40;;;;;;;6.23;2.87;;;;;;;;;;4953340;28;20438;-69
2022/10/08 11:35:16;;;;;;;2.17;1.97;;;;;;;;;;4952393;28;20443;-68
2022/10/08 11:38:01;;;;;;;3.83;2.22;;;;;;;;;;4952768;28;20464;-68
2022/10/08 11:40:30;;;;;;;2.90;1.80;;;;;;;;;;4951887;28;20206;-70
2022/10/08 11:43:00;;;;;;;10.03;3.13;;;;;;;;;;4952830;28;20522;-70
2022/10/08 11:45:39;;;;;;;4.93;2.30;;;;;;;;;;4952289;28;20435;-69
2022/10/08 11:48:23;;;;;;;4.43;2.50;;;;;;;;;;4951506;28;20442;-69
2022/10/08 11:50:49;;;;;;;2.90;2.03;;;;;;;;;;4952985;28;20494;-69
2022/10/08 11:53:15;;;;;;;9.23;1.77;;;;;;;;;;4952493;28;20442;-68
2022/10/08 11:55:48;;;;;;;5.50;2.53;;;;;;;;;;4952075;28;20450;-69
2022/10/08 11:58:22;;;;;;;7.70;2.13;;;;;;;;;;4951630;28;20430;-69
2022/10/08 12:00:49;;;;;;;4.80;2.10;;;;;;;;;;4952927;28;20446;-70
2022/10/08 12:03:35;;;;;;;5.93;2.80;;;;;;;;;;4952790;28;20511;-69
2022/10/08 12:06:13;;;;;;;4.00;3.00;;;;;;;;;;4952619;28;20441;-71
2022/10/08 12:08:58;;;;;;;7.20;2.43;;;;;;;;;;4952415;28;20474;-71
2022/10/08 12:11:44;;;;;;;2.33;2.23;;;;;;;;;;4952652;28;20486;-70
2022/10/08 12:14:15;;;;;;;4.50;4.10;;;;;;;;;;4952288;28;21040;-69
2022/10/08 12:16:47;;;;;;;2.30;2.10;;;;;;;;;;4952821;28;20443;-69
2022/10/08 12:19:35;;;;;;;3.07;2.20;;;;;;;;;;4951073;28;20807;-72
2022/10/08 12:22:03;;;;;;;1.73;1.63;;;;;;;;;;4952670;28;20441;-70
2022/10/08 12:24:38;;;;;;;9.37;4.37;;;;;;;;;;4952223;28;20920;-69
2022/10/08 12:27:16;;;;;;;8.43;3.37;;;;;;;;;;4952316;28;21384;-69
2022/10/08 12:30:03;;;;;;;7.03;3.63;;;;;;;;;;4952724;28;20517;-68
2022/10/08 12:32:30;;;;;;;1.67;1.67;;;;;;;;;;4951796;28;20546;-68
2022/10/08 12:34:57;;;;;;;10.10;2.10;;;;;;;;;;4951788;28;20490;-68
2022/10/08 12:37:38;;;;;;;6.20;3.07;;;;;;;;;;4952022;28;20478;-70
2022/10/08 12:40:22;;;;;;;9.63;2.53;;;;;;;;;;4966268;28;20466;-69
2022/10/08 12:42:49;;;;;;;6.70;1.67;;;;;;;;;;4951751;28;20533;-70
2022/10/08 12:45:24;;;;;;;2.87;2.70;;;;;;;;;;4951315;28;20431;-69
2022/10/08 12:47:57;;;;;;;2.97;1.90;;;;;;;;;;4951878;28;20505;-69
2022/10/08 12:50:38;;;;;;;1.63;1.53;;;;;;;;;;4952285;28;20486;-68
2022/10/08 12:53:05;;;;;;;9.93;1.87;;;;;;;;;;4950721;28;20803;-69
2022/10/08 12:55:35;;;;;;;14.93;1.60;;;;;;;;;;4951228;28;20595;-70
2022/10/08 12:58:01;;;;;;;1.77;1.30;;;;;;;;;;4951858;28;20449;-70
2022/10/08 13:00:31;;;;;;;7.10;1.70;;;;;;;;;;4950311;28;20970;-69
2022/10/08 13:03:04;;;;;;;6.07;2.00;;;;;;;;;;4951260;28;20458;-68
2022/10/08 13:05:35;;;;;;;10.03;1.67;;;;;;;;;;4951644;28;20435;-70
2022/10/08 13:08:19;;;;;;;3.57;1.70;;;;;;;;;;4951262;28;20435;-69
2022/10/08 13:10:45;;;;;;;3.30;1.50;;;;;;;;;;4951452;28;20935;-69
2022/10/08 13:13:31;;;;;;;2.60;1.80;;;;;;;;;;4950435;28;20435;-69
2022/10/08 13:15:58;;;;;;;5.20;1.13;;;;;;;;;;4951958;28;21026;-69
2022/10/08 13:18:24;;;;;;;2.13;1.60;;;;;;;;;;4950148;28;20455;-70
2022/10/08 13:21:04;;;;;;;7.50;1.90;;;;;;;;;;4951334;28;20572;-68
2022/10/08 13:23:33;;;;;;;9.80;1.33;;;;;;;;;;4950304;28;20441;-64
2022/10/08 13:25:59;;;;;;;3.80;1.60;;;;;;;;;;4951397;28;20426;-63
2022/10/08 13:28:26;;;;;;;1.80;1.47;;;;;;;;;;4951679;28;20789;-64
2022/10/08 13:30:55;;;;;;;3.80;2.17;;;;;;;;;;4950874;28;20521;-63
2022/10/08 13:33:23;;;;;;;3.20;2.03;;;;;;;;;;4950280;28;20435;-64
2022/10/08 13:35:54;;;;;;;3.40;1.70;;;;;;;;;;4950713;28;20462;-64
2022/10/08 13:38:22;;;;;;;6.73;1.40;;;;;;;;;;4951572;28;20462;-70
2022/10/08 13:40:49;;;;;;;4.27;1.50;;;;;;;;;;4951736;28;20438;-70
2022/10/08 13:43:15;;;;;;;3.77;1.57;;;;;;;;;;4950949;28;20435;-68
2022/10/08 13:45:41;;;;;;;1.30;1.20;;;;;;;;;;4951012;28;20443;-68
2022/10/08 13:48:11;;;;;;;2.67;1.30;;;;;;;;;;4951188;28;20445;-69
2022/10/08 13:50:41;;;;;;;4.33;1.80;;;;;;;;;;4951453;28;20498;-69
2022/10/08 13:53:09;;;;;;;1.63;1.53;;;;;;;;;;4949905;28;20784;-69
2022/10/08 13:55:36;;;;;;;2.20;1.40;;;;;;;;;;4951161;28;20433;-70
2022/10/08 13:58:03;;;;;;;2.47;1.37;;;;;;;;;;4950852;28;20423;-68
2022/10/08 14:00:29;;;;;;;1.73;1.53;;;;;;;;;;4951495;28;20943;-68
2022/10/08 14:02:55;;;;;;;13.90;1.40;;;;;;;;;;4950890;28;20446;-70
2022/10/08 14:05:22;;;;;;;3.07;1.80;;;;;;;;;;4951036;28;20442;-70
2022/10/08 14:07:50;;;;;;;4.40;1.33;;;;;;;;;;4951630;28;20423;-68
2022/10/08 14:10:19;;;;;;;8.40;2.10;;;;;;;;;;4949819;28;20964;-69
2022/10/08 14:12:45;;;;;;;1.03;0.97;;;;;;;;;;4951918;28;20549;-69
2022/10/08 14:15:12;;;;;;;4.43;1.50;;;;;;;;;;4952485;28;20994;-69
2022/10/08 14:17:38;;;;;;;1.70;1.60;;;;;;;;;;4953774;28;20438;-69
2022/10/08 14:20:05;;;;;;;5.37;1.47;;;;;;;;;;4953443;28;20899;-68
2022/10/08 14:22:37;;;;;;;11.33;2.50;;;;;;;;;;4951723;28;20950;-69
2022/10/08 14:25:04;;;;;;;5.33;1.50;;;;;;;;;;4951873;28;20430;-68
2022/10/08 14:27:30;;;;;;;7.83;1.23;;;;;;;;;;4953022;28;20799;-69
2022/10/08 14:29:56;;;;;;;3.90;1.50;;;;;;;;;;4952085;28;20974;-70
2022/10/08 14:32:22;;;;;;;3.83;1.10;;;;;;;;;;4950757;28;20510;-72
2022/10/08 14:34:48;;;;;;;7.83;1.80;;;;;;;;;;4952680;28;20532;-70
2022/10/08 14:37:14;;;;;;;6.00;1.73;;;;;;;;;;4951742;28;20520;-71
2022/10/08 14:39:40;;;;;;;7.50;1.77;;;;;;;;;;4951157;28;20431;-70
2022/10/08 14:42:05;;;;;;;2.40;1.43;;;;;;;;;;4953452;28;20911;-68
2022/10/08 14:44:31;;;;;;;4.13;1.60;;;;;;;;;;4951737;28;20494;-69
2022/10/08 14:46:57;;;;;;;5.93;1.10;;;;;;;;;;4950868;28;20434;-69
2022/10/08 14:49:23;;;;;;;3.73;1.40;;;;;;;;;;4952756;28;20435;-68
2022/10/08 14:51:49;;;;;;;4.17;1.90;;;;;;;;;;4952253;28;20582;-70
2022/10/08 14:54:16;;;;;;;2.77;2.07;;;;;;;;;;4950519;28;20802;-68